Center Lovell, Maine
Current Conditions -  °F | °C
As of 7:54 AM on Wednesday 26 Nov 2014 (Local Time) from KIZG Reporting Station
Clear Clear  
Wind Chill: 35°   Ceiling: Unl
Heat Index: 35°   Visibility: 10mi
Dew Point: 26°   Wind: 0mph
Humidity: 70%   Direction: NA
Pressure: 30.2"   Gusts: NA
Location:  44.18°N, 70.89°W
Report Text: KIZG 261254Z AUTO 00000KT 10SM CLR 02/M03 A3020 RMK AO2 SLP233 T00171033
Loading
Personal Weather Stations






























Interactive Weather Map New forecast layout! Learn more

10-Day Weather Forecast

Advertisements
Track Severe Weather on mobile